Startpagina
METAR-TAF:

METAR-TAF

Vliegvelden :

Productieplatform

Goeree Le, Nederland

breedte: 51-55-33N, lengte: 3-40-12E, hoogte: 19 m

Actueel weer

Dit bericht is 17 minuten geleden gemaakt, om 23:55 UTC
Wind 12 kt uit het zuidzuidoosten
Temperatuur 10°C
Vochtigheid 87%
Druk 1023 hPa
Zicht 10 km of meer

METAR: EHSC 142355Z AUTO 16012KT 9999 ///////// 10/08 Q1023 W12/H5

Tijdstip: 01:12 (00:12 UTC)


TAF: ontbreekt

Waarnemingen en weersverwachtingen van meer dan 4000 vliegvelden (METAR en TAF).

De beschikbare stations zijn de gele en rode punten op de kaart.

Ga met uw muis naar het station om de naam te zien.

Klik dan om waarnemingen en weersverwachtingen te zien.

kaart wijzigen: klik op de groene knoppen met een zwart kruis om in te zoomen, op de groene knop met een streepje om uit te zoomen of op de groene pijlen voor aangrenzende kaarten.


METAR-TAF: